Time;durP1;ratioP1;P1;durP2;ratioP2;P2;SDS_P1;SDS_P2;PMS_P1;PMS_P2;Temp;Humidity;BMP_temperature;BMP_pressure;BME280_temperature;BME280_humidity;BME280_pressure;Samples;Min_cycle;Max_cycle;Signal;HPM_P1;HPM_P2
2022/06/02 00:01:57;;;;;;;6.62;5.35;;;;;;;12.80;63.09;97220.28;1614047;88;26545;-74
2022/06/02 00:04:57;;;;;;;11.00;5.97;;;;;;;12.85;63.01;97214.98;1613034;88;25879;-74
2022/06/02 00:07:32;;;;;;;7.47;5.40;;;;;;;12.82;63.22;97218.14;1525273;94;27443;-76
2022/06/02 00:10:07;;;;;;;7.85;4.67;;;;;;;12.80;63.43;97214.86;1500073;94;25918;-74
2022/06/02 00:13:02;;;;;;;6.65;4.75;;;;;;;12.74;63.49;97207.11;1458486;98;25443;-74
2022/06/02 00:15:40;;;;;;;6.45;5.20;;;;;;;12.73;63.54;97196.50;1416133;101;26754;-74
2022/06/02 00:18:27;;;;;;;7.60;4.83;;;;;;;12.73;63.66;97205.45;1443203;97;25857;-74
2022/06/02 00:21:08;;;;;;;6.17;4.35;;;;;;;12.68;63.66;97193.67;1456264;97;28065;-75
2022/06/02 00:24:00;;;;;;;5.80;4.25;;;;;;;12.68;63.78;97187.70;1415503;101;25918;-74
2022/06/02 00:26:58;;;;;;;5.42;4.50;;;;;;;12.66;63.80;97187.13;1415652;101;25884;-76
2022/06/02 00:29:39;;;;;;;5.78;4.47;;;;;;;12.66;63.88;97189.84;1415540;101;26506;-75
2022/06/02 00:32:20;;;;;;;7.67;4.37;;;;;;;12.68;63.84;97193.12;1415372;101;26081;-75
2022/06/02 00:35:11;;;;;;;7.37;5.55;;;;;;;12.72;63.79;97201.62;1448474;98;27569;-76
2022/06/02 00:37:48;;;;;;;5.20;3.92;;;;;;;12.75;63.92;97201.17;1451432;98;25833;-73
2022/06/02 00:40:18;;;;;;;6.12;4.00;;;;;;;12.76;64.01;97202.83;1451550;98;25879;-74
2022/06/02 00:43:20;;;;;;;5.50;4.20;;;;;;;12.76;64.07;97198.23;1444529;98;25973;-75
2022/06/02 00:45:52;;;;;;;6.23;4.33;;;;;;;12.76;64.10;97196.05;1521857;94;25896;-74
2022/06/02 00:48:46;;;;;;;5.10;4.37;;;;;;;12.76;64.20;97193.34;1519398;94;28455;-74
2022/06/02 00:51:18;;;;;;;6.30;4.05;;;;;;;12.76;64.23;97187.40;1513846;94;26655;-75
2022/06/02 00:57:34;;;;;;;8.73;4.33;;;;;;;12.69;64.35;97177.70;1634479;85;26795;-77
2022/06/02 01:00:25;;;;;;;7.50;3.92;;;;;;;12.55;64.46;97172.50;1654638;86;25768;-75
2022/06/02 01:03:06;;;;;;;9.35;4.25;;;;;;;12.54;64.59;97165.42;1655277;86;27484;-76
2022/06/02 01:06:24;;;;;;;6.47;4.08;;;;;;;12.59;64.72;97156.59;1655360;86;25812;-76
2022/06/02 01:09:14;;;;;;;7.20;4.25;;;;;;;12.61;64.61;97160.73;1655416;86;25790;-75
2022/06/02 01:12:16;;;;;;;5.00;4.22;;;;;;;12.62;64.62;97152.91;1655388;86;25759;-75
2022/06/02 01:14:54;;;;;;;6.22;4.03;;;;;;;12.60;64.63;97144.71;1655676;86;25740;-75
2022/06/02 01:17:44;;;;;;;4.67;4.05;;;;;;;12.62;64.79;97146.14;1711684;83;27535;-75
2022/06/02 01:20:43;;;;;;;6.45;4.17;;;;;;;12.63;64.77;97138.84;1711547;83;25806;-75
2022/06/02 01:23:38;;;;;;;4.87;3.90;;;;;;;12.64;64.80;97145.91;1711524;83;25808;-75
2022/06/02 01:26:38;;;;;;;5.72;3.98;;;;;;;12.63;64.88;97150.50;1711466;83;25818;-75
2022/06/02 01:29:18;;;;;;;5.97;4.33;;;;;;;12.61;65.05;97148.55;1685004;85;25724;-75
2022/06/02 01:31:57;;;;;;;5.42;4.55;;;;;;;12.54;65.20;97146.47;1694713;84;27338;-76
2022/06/02 01:34:47;;;;;;;6.75;4.10;;;;;;;12.56;65.33;97144.86;1661520;86;25969;-74
2022/06/02 01:37:32;;;;;;;6.42;4.30;;;;;;;12.54;65.42;97138.35;1671042;85;25816;-74
2022/06/02 01:40:35;;;;;;;5.17;4.30;;;;;;;12.50;65.53;97141.73;1647317;86;25960;-74
2022/06/02 01:43:13;;;;;;;6.33;4.33;;;;;;;12.47;65.66;97152.48;1597535;89;25736;-74
2022/06/02 01:46:24;;;;;;;6.60;4.35;;;;;;;12.50;65.70;97176.41;1597774;89;26573;-75
2022/06/02 01:49:22;;;;;;;7.80;5.33;;;;;;;12.53;65.58;97204.91;1600602;89;25901;-75
2022/06/02 01:51:59;;;;;;;6.78;5.30;;;;;;;12.40;65.57;97186.13;1597361;89;25864;-75
2022/06/02 01:54:50;;;;;;;9.55;5.05;;;;;;;12.43;65.65;97189.74;1548757;92;26544;-77
2022/06/02 01:57:46;;;;;;;6.50;4.87;;;;;;;12.48;65.43;97198.81;1547251;92;25798;-73
2022/06/02 02:00:23;;;;;;;10.08;5.05;;;;;;;12.56;65.30;97195.78;1547880;92;27515;-77
2022/06/02 02:03:01;;;;;;;6.37;4.90;;;;;;;12.64;65.12;97197.36;1550688;92;25940;-77
2022/06/02 02:05:58;;;;;;;7.12;4.58;;;;;;;12.74;64.96;97194.09;1550758;92;25359;-75
2022/06/02 02:08:52;;;;;;;8.80;4.87;;;;;;;12.79;64.92;97192.89;1546143;92;26410;-75
2022/06/02 02:11:46;;;;;;;6.50;4.80;;;;;;;12.86;65.04;97199.03;1541809;93;25832;-77
2022/06/02 02:14:39;;;;;;;8.13;5.12;;;;;;;12.94;65.17;97188.67;1541637;92;27340;-76
2022/06/02 02:17:29;;;;;;;7.60;5.17;;;;;;;13.01;65.43;97184.53;1541163;91;25822;-76
2022/06/02 02:20:18;;;;;;;7.83;5.65;;;;;;;13.08;65.64;97188.48;1555141;91;25840;-76
2022/06/02 02:23:05;;;;;;;7.80;5.08;;;;;;;13.12;65.80;97189.15;1571778;91;26558;-76
2022/06/02 02:25:43;;;;;;;7.75;5.58;;;;;;;13.17;66.14;97184.39;1581959;90;26001;-76
2022/06/02 02:28:38;;;;;;;8.00;5.45;;;;;;;13.19;66.26;97188.53;1541256;93;28304;-76
2022/06/02 02:31:27;;;;;;;10.00;5.80;;;;;;;13.22;66.29;97191.31;1548445;89;25853;-77
2022/06/02 02:34:05;;;;;;;6.87;5.37;;;;;;;13.27;66.49;97186.86;1594082;89;25837;-77
2022/06/02 02:36:49;;;;;;;10.55;5.40;;;;;;;13.28;66.73;97193.91;1526554;93;25772;-75
2022/06/02 02:39:42;;;;;;;6.87;6.08;;;;;;;13.29;66.71;97202.86;1526675;93;25877;-76
2022/06/02 02:42:32;;;;;;;;;;;;;;;13.31;66.78;97204.28;1531880;92;28299;-76
2022/06/02 02:45:27;;;;;;;9.35;5.70;;;;;;;13.38;67.31;97196.59;1575886;91;25366;-76
2022/06/02 02:48:14;;;;;;;6.42;5.40;;;;;;;13.39;67.24;97190.11;1576025;91;25808;-78
2022/06/02 02:50:55;;;;;;;6.58;4.92;;;;;;;13.43;67.32;97191.27;1575894;91;26441;-77
2022/06/02 02:53:27;;;;;;;9.10;5.70;;;;;;;13.46;67.50;97193.52;1576045;91;25945;-75
2022/06/02 02:56:35;;;;;;;7.45;5.55;;;;;;;13.49;67.67;97199.84;1576212;90;28122;-76
2022/06/02 02:59:07;;;;;;;6.42;5.45;;;;;;;13.50;67.71;97206.92;1600783;89;25781;-76
2022/06/02 03:02:00;;;;;;;6.42;5.60;;;;;;;13.52;67.85;97222.42;1598810;89;34843;-78
2022/06/02 03:05:14;;;;;;;7.12;5.83;;;;;;;13.50;67.86;97221.83;1601942;88;26317;-75
2022/06/02 03:07:41;;;;;;;8.93;5.50;;;;;;;13.47;68.08;97225.83;1622120;87;25852;-76
2022/06/02 03:10:36;;;;;;;11.90;6.12;;;;;;;13.44;68.19;97229.00;1622161;87;27601;-76
2022/06/02 03:13:24;;;;;;;7.03;5.67;;;;;;;13.43;68.25;97228.70;1622002;88;25911;-77
2022/06/02 03:16:06;;;;;;;7.83;5.75;;;;;;;13.46;68.30;97235.55;1622071;87;25827;-77
2022/06/02 03:19:00;;;;;;;7.65;5.40;;;;;;;13.50;68.50;97232.15;1621180;87;25758;-76
2022/06/02 03:21:47;;;;;;;12.78;6.15;;;;;;;13.49;68.63;97235.09;1588547;90;25914;-76
2022/06/02 03:24:53;;;;;;;7.83;5.87;;;;;;;13.49;68.88;97233.73;1564153;91;27506;-76
2022/06/02 03:27:50;;;;;;;8.08;5.92;;;;;;;13.45;68.95;97232.54;1558553;92;25858;-76
2022/06/02 03:30:24;;;;;;;7.00;5.62;;;;;;;13.46;69.08;97235.55;1558937;92;25863;-76
2022/06/02 03:33:12;;;;;;;7.75;6.00;;;;;;;13.48;69.39;97230.72;1601685;87;25877;-77
2022/06/02 03:35:53;;;;;;;6.30;5.65;;;;;;;13.49;69.41;97230.49;1622485;87;25856;-76
2022/06/02 03:38:45;;;;;;;7.22;5.90;;;;;;;13.50;69.64;97228.61;1620425;87;27405;-76
2022/06/02 03:41:22;;;;;;;7.20;6.30;;;;;;;13.50;69.76;97228.61;1622394;87;25827;-76
2022/06/02 03:44:11;;;;;;;10.72;6.10;;;;;;;13.50;69.89;97231.32;1621010;87;25462;-75
2022/06/02 03:46:51;;;;;;;9.03;5.75;;;;;;;13.54;70.09;97227.06;1622420;87;25817;-76
2022/06/02 03:49:38;;;;;;;13.50;5.83;;;;;;;13.54;69.81;97227.06;1625580;86;25846;-76
2022/06/02 03:52:21;;;;;;;11.22;5.60;;;;;;;13.56;69.54;97216.81;1622495;87;27409;-76
2022/06/02 03:55:02;;;;;;;10.95;5.60;;;;;;;13.61;69.51;97227.80;1623848;86;25922;-76
2022/06/02 03:58:12;;;;;;;8.63;6.05;;;;;;;13.62;69.42;97241.13;1621002;87;25795;-75
2022/06/02 04:00:55;;;;;;;11.63;7.10;;;;;;;13.65;69.34;97256.91;1620898;86;25884;-78
2022/06/02 04:03:49;;;;;;;10.90;8.33;;;;;;;13.71;69.10;97255.16;1669895;85;25744;-77
2022/06/02 04:07:11;;;;;;;15.90;9.23;;;;;;;13.73;69.06;97244.91;1669895;85;27390;-76
2022/06/02 04:09:58;;;;;;;10.85;8.48;;;;;;;13.75;69.05;97247.38;1677913;84;25825;-77
2022/06/02 04:15:52;;;;;;;13.60;8.60;;;;;;;13.82;68.94;97233.98;1622807;86;25852;-76
2022/06/02 04:18:26;;;;;;;14.87;8.78;;;;;;;13.83;68.97;97229.39;1649305;86;25930;-75
2022/06/02 04:21:27;;;;;;;13.75;8.48;;;;;;;13.81;68.90;97226.91;1674749;85;27407;-76
2022/06/02 04:24:17;;;;;;;13.78;9.18;;;;;;;13.82;68.87;97238.59;1677838;85;25926;-76
2022/06/02 04:27:18;;;;;;;16.37;8.63;;;;;;;13.85;68.94;97240.30;1677984;85;25799;-77
2022/06/02 04:30:22;;;;;;;16.05;8.35;;;;;;;13.88;68.85;97246.62;1676153;85;26294;-76
2022/06/02 04:33:27;;;;;;;10.10;7.25;;;;;;;13.89;68.92;97246.89;1674447;85;25739;-76
2022/06/02 04:36:23;;;;;;;14.05;7.85;;;;;;;13.89;69.03;97266.41;1674366;85;27408;-76
2022/06/02 04:39:19;;;;;;;11.93;7.80;;;;;;;13.88;69.29;97266.97;1615932;88;25567;-77
2022/06/02 04:42:15;;;;;;;10.43;7.83;;;;;;;13.86;69.53;97275.88;1617206;88;25837;-76
2022/06/02 04:44:53;;;;;;;11.10;7.50;;;;;;;13.84;69.83;97272.56;1615633;88;25855;-76
2022/06/02 04:47:55;;;;;;;13.88;8.43;;;;;;;13.81;69.88;97268.95;1595115;89;25824;-76
2022/06/02 04:50:29;;;;;;;12.37;8.63;;;;;;;13.83;70.08;97270.08;1593939;90;27576;-76
2022/06/02 04:53:19;;;;;;;18.05;8.70;;;;;;;13.84;70.29;97273.92;1593993;89;25936;-77
2022/06/02 04:56:27;;;;;;;11.78;8.25;;;;;;;13.86;70.31;97275.88;1652839;86;25770;-77
2022/06/02 04:59:11;;;;;;;15.30;8.18;;;;;;;13.86;70.40;97281.83;1628856;87;25842;-76
2022/06/02 05:02:04;;;;;;;14.45;8.15;;;;;;;13.87;70.63;97276.70;1626503;87;25821;-76
2022/06/02 05:04:52;;;;;;;19.10;9.05;;;;;;;13.87;70.84;97268.03;1628683;87;28179;-75
2022/06/02 05:07:45;;;;;;;13.58;8.38;;;;;;;13.87;71.00;97257.18;1601358;89;25804;-75
2022/06/02 05:10:44;;;;;;;15.28;8.83;;;;;;;13.82;71.30;97264.36;1610498;88;25796;-76
2022/06/02 05:13:37;;;;;;;13.55;8.95;;;;;;;13.75;71.30;97280.77;1577096;89;25944;-74
2022/06/02 05:16:44;;;;;;;14.53;9.63;;;;;;;13.79;71.41;97291.95;1552465;92;25851;-74
2022/06/02 05:19:43;;;;;;;12.43;9.90;;;;;;;13.83;71.54;97283.12;1552407;92;27462;-75
2022/06/02 05:22:18;;;;;;;13.72;9.15;;;;;;;13.88;71.75;97302.25;1576670;90;25849;-75
2022/06/02 05:25:14;;;;;;;14.50;9.10;;;;;;;13.90;71.92;97307.41;1532677;93;25408;-75
2022/06/02 05:27:58;;;;;;;11.40;8.45;;;;;;;13.88;72.02;97318.52;1543076;92;25914;-74
2022/06/02 05:30:36;;;;;;;12.07;9.10;;;;;;;13.90;72.22;97329.12;1517806;94;25418;-73
2022/06/02 05:33:41;;;;;;;13.28;9.83;;;;;;;13.88;72.30;97315.81;1531318;93;28394;-74
2022/06/02 05:36:31;;;;;;;15.43;13.60;;;;;;;13.87;72.46;97310.61;1493361;96;25804;-74
2022/06/02 05:39:09;;;;;;;12.80;10.28;;;;;;;13.88;72.64;97319.88;1507422;95;26623;-74
2022/06/02 05:41:56;;;;;;;14.53;11.08;;;;;;;13.87;72.92;97314.16;1489805;96;26340;-75
2022/06/02 05:44:43;;;;;;;14.15;10.40;;;;;;;13.85;73.08;97316.27;1494632;95;25834;-74
2022/06/02 05:47:27;;;;;;;10.82;8.00;;;;;;;13.85;73.23;97314.09;1496742;95;28225;-74
2022/06/02 05:50:06;;;;;;;13.70;10.15;;;;;;;13.85;73.47;97316.27;1505265;94;25893;-75
2022/06/02 05:53:09;;;;;;;17.37;9.60;;;;;;;13.82;73.51;97319.45;1519665;94;25837;-74
2022/06/02 05:56:20;;;;;;;17.23;11.15;;;;;;;13.83;73.54;97317.56;1523761;92;26416;-74
2022/06/02 05:59:19;;;;;;;12.45;9.70;;;;;;;13.88;73.56;97332.63;1529786;92;26083;-74
2022/06/02 06:02:00;;;;;;;12.80;10.30;;;;;;;13.91;73.42;97330.25;1542919;92;27690;-74
2022/06/02 06:04:55;;;;;;;14.55;9.73;;;;;;;13.96;73.43;97342.59;1544026;92;25885;-74
2022/06/02 06:07:56;;;;;;;10.82;9.70;;;;;;;14.00;73.44;97349.22;1544388;92;26592;-74
2022/06/02 06:10:34;;;;;;;15.03;10.40;;;;;;;14.05;73.68;97350.67;1557990;92;26546;-73
2022/06/02 06:13:48;;;;;;;15.45;10.63;;;;;;;14.05;73.66;97355.28;1486532;96;25966;-73
2022/06/02 06:16:40;;;;;;;18.70;11.40;;;;;;;14.06;73.63;97361.00;1491601;96;27669;-73
2022/06/02 06:19:30;;;;;;;19.40;13.58;;;;;;;14.10;73.62;97368.16;1489555;96;25911;-74
2022/06/02 06:22:28;;;;;;;20.97;13.38;;;;;;;14.13;73.52;97363.63;1462312;97;25804;-74
2022/06/02 06:25:37;;;;;;;22.60;13.88;;;;;;;14.14;73.58;97358.46;1477146;97;25813;-74
2022/06/02 06:28:13;;;;;;;19.75;13.90;;;;;;;14.09;73.59;97365.14;1460841;96;25770;-75
2022/06/02 06:31:06;;;;;;;16.40;13.32;;;;;;;14.09;73.78;97369.22;1464150;97;27701;-74
2022/06/02 06:34:07;;;;;;;20.62;14.03;;;;;;;14.09;74.06;97374.11;1473611;95;25864;-75
2022/06/02 06:36:47;;;;;;;18.70;14.03;;;;;;;14.05;74.30;97363.42;1499032;95;25845;-76
2022/06/02 06:39:19;;;;;;;19.55;14.13;;;;;;;14.00;74.32;97366.03;1501878;93;25890;-74
2022/06/02 06:42:29;;;;;;;20.30;13.80;;;;;;;14.00;74.44;97368.21;1523726;93;25703;-75
2022/06/02 06:45:15;;;;;;;18.75;12.40;;;;;;;14.05;74.43;97365.61;1526194;93;28314;-74
2022/06/02 06:47:59;;;;;;;16.30;12.35;;;;;;;14.04;74.55;97363.95;1438523;99;25813;-74
2022/06/02 06:50:46;;;;;;;19.40;13.83;;;;;;;14.07;74.79;97350.45;1436637;98;25847;-73
2022/06/02 06:53:39;;;;;;;16.50;11.22;;;;;;;14.13;74.87;97355.48;1434984;98;26618;-74
2022/06/02 06:56:24;;;;;;;13.40;10.40;;;;;;;14.21;74.89;97362.73;1435235;99;26348;-75
2022/06/02 06:59:15;;;;;;;18.12;12.23;;;;;;;14.29;74.75;97361.02;1443133;97;27458;-73
2022/06/02 07:02:02;;;;;;;14.53;10.90;;;;;;;14.39;75.04;97354.99;1448925;98;25962;-74
2022/06/02 07:05:01;;;;;;;14.13;10.43;;;;;;;14.50;75.10;97360.98;1451609;97;25411;-74
2022/06/02 07:08:09;;;;;;;14.28;11.15;;;;;;;14.65;75.23;97365.40;1449200;98;25952;-74
2022/06/02 07:10:58;;;;;;;15.50;10.85;;;;;;;14.83;75.30;97364.97;1449333;97;25874;-74
2022/06/02 07:13:46;;;;;;;11.80;10.30;;;;;;;15.07;75.58;97373.37;1449346;98;27563;-75
2022/06/02 07:16:36;;;;;;;15.65;9.85;;;;;;;15.23;75.27;97373.13;1466924;96;25877;-74
2022/06/02 07:19:32;;;;;;;15.35;8.85;;;;;;;15.36;75.13;97377.75;1468972;96;25828;-74
2022/06/02 07:22:13;;;;;;;11.97;8.50;;;;;;;15.49;74.82;97380.71;1484404;96;25904;-73
2022/06/02 07:25:01;;;;;;;11.75;8.28;;;;;;;15.56;74.31;97390.14;1533344;87;25879;-74
2022/06/02 07:27:51;;;;;;;11.73;7.37;;;;;;;15.64;74.46;97382.94;1609283;87;27248;-74
2022/06/02 07:30:46;;;;;;;9.70;7.10;;;;;;;15.76;74.71;97382.34;1593531;87;25331;-73
2022/06/02 07:33:45;;;;;;;10.58;6.83;;;;;;;15.89;74.40;97387.48;1634217;87;25895;-74
2022/06/02 07:36:31;;;;;;;7.17;5.35;;;;;;;15.98;74.12;97387.89;1636977;87;25742;-74
2022/06/02 07:39:09;;;;;;;7.30;5.58;;;;;;;16.13;74.15;97383.54;1632376;87;25834;-76
2022/06/02 07:42:03;;;;;;;8.98;5.80;;;;;;;16.25;73.90;97390.80;1631253;87;28040;-74
2022/06/02 07:45:01;;;;;;;6.92;5.60;;;;;;;16.30;73.72;97394.98;1636558;87;25894;-74
2022/06/02 07:48:01;;;;;;;7.25;5.50;;;;;;;16.36;73.56;97385.80;1632696;87;25327;-75
2022/06/02 07:50:32;;;;;;;8.53;6.10;;;;;;;16.38;73.37;97389.94;1609719;89;25814;-75
2022/06/02 07:53:27;;;;;;;7.83;5.85;;;;;;;16.37;73.04;97390.18;1610380;89;25813;-75
2022/06/02 07:55:59;;;;;;;5.92;5.25;;;;;;;16.37;72.95;97401.90;1588367;88;28296;-74
2022/06/02 07:58:52;;;;;;;6.97;5.42;;;;;;;16.38;72.72;97402.19;1616665;87;25740;-75
2022/06/02 08:01:24;;;;;;;8.50;5.37;;;;;;;16.45;73.00;97408.82;1554528;91;25883;-74
2022/06/02 08:04:13;;;;;;;5.33;4.80;;;;;;;16.56;72.84;97412.81;1518534;94;26499;-74
2022/06/02 08:07:08;;;;;;;7.72;5.70;;;;;;;16.61;72.69;97410.72;1445758;99;25825;-74
2022/06/02 08:09:55;;;;;;;6.60;5.70;;;;;;;16.64;72.46;97409.43;1406585;101;27460;-76
2022/06/02 08:12:40;;;;;;;7.25;5.83;;;;;;;16.72;72.28;97410.36;1403189;102;25839;-74
2022/06/02 08:15:27;;;;;;;7.35;5.53;;;;;;;16.81;72.77;97413.77;1401998;102;25535;-73
2022/06/02 08:18:48;;;;;;;7.25;5.67;;;;;;;16.98;72.35;97411.55;1403997;102;26039;-75
2022/06/02 08:21:47;;;;;;;5.37;4.47;;;;;;;17.14;72.15;97416.14;1404150;102;26027;-76
2022/06/02 08:24:51;;;;;;;6.15;4.60;;;;;;;17.47;71.26;97417.91;1403895;102;28093;-74
2022/06/02 08:27:38;;;;;;;4.95;3.85;;;;;;;18.00;71.26;97419.86;1456150;95;25835;-75
2022/06/02 08:30:15;;;;;;;8.23;3.80;;;;;;;18.78;70.70;97408.80;1493866;95;25907;-75
2022/06/02 08:33:09;;;;;;;5.40;3.60;;;;;;;19.21;69.82;97421.89;1482843;96;26358;-76
2022/06/02 08:35:50;;;;;;;6.03;4.17;;;;;;;19.44;69.08;97413.27;1484573;96;25937;-76
2022/06/02 08:38:55;;;;;;;4.45;3.45;;;;;;;19.67;68.40;97418.31;1483262;96;27568;-77
2022/06/02 08:41:44;;;;;;;3.60;3.15;;;;;;;19.92;68.12;97427.69;1441102;99;25877;-77
2022/06/02 08:44:54;;;;;;;4.15;3.50;;;;;;;20.08;67.11;97427.42;1474071;97;25805;-77
2022/06/02 08:47:52;;;;;;;3.77;3.30;;;;;;;20.25;66.44;97428.55;1442682;99;26505;-77
2022/06/02 08:51:05;;;;;;;3.50;3.20;;;;;;;20.72;66.23;97424.75;1474117;97;25827;-76
2022/06/02 08:54:03;;;;;;;;;;;;;;;21.37;65.05;97421.62;1409351;101;27716;-76
2022/06/02 08:56:52;;;;;;;5.05;3.30;;;;;;;21.53;63.33;97417.70;1413218;101;25875;-80
2022/06/02 08:59:44;;;;;;;3.37;3.08;;;;;;;21.99;63.82;97422.98;1456900;97;25828;-76
2022/06/02 09:02:57;;;;;;;3.87;3.30;;;;;;;22.54;62.39;97421.23;1473461;97;26407;-76
2022/06/02 09:06:18;;;;;;;6.80;3.27;;;;;;;22.58;61.31;97423.65;1566172;91;25413;-75
2022/06/02 09:09:15;;;;;;;2.85;2.50;;;;;;;22.36;60.80;97426.03;1566236;91;28190;-75
2022/06/02 09:12:07;;;;;;;7.22;3.50;;;;;;;22.20;59.64;97431.39;1566089;91;25945;-74
2022/06/02 09:15:21;;;;;;;4.58;3.58;;;;;;;22.16;60.09;97435.26;1566356;91;25819;-74
2022/06/02 09:18:12;;;;;;;5.80;3.40;;;;;;;22.08;60.07;97426.25;1571377;87;25710;-75
2022/06/02 09:20:55;;;;;;;6.17;3.58;;;;;;;21.82;59.47;97428.28;1639119;87;25787;-75
2022/06/02 09:23:46;;;;;;;6.17;3.60;;;;;;;21.72;59.74;97435.20;1634733;87;27395;-74
2022/06/02 09:26:20;;;;;;;6.83;3.40;;;;;;;21.72;59.03;97436.58;1639082;87;25967;-75
2022/06/02 09:29:15;;;;;;;6.25;3.60;;;;;;;21.55;58.91;97428.68;1738188;81;25700;-75
2022/06/02 09:32:04;;;;;;;6.72;3.58;;;;;;;21.54;58.50;97434.45;1728636;82;25794;-75
2022/06/02 09:34:41;;;;;;;4.97;3.67;;;;;;;21.50;58.35;97442.97;1728913;82;25940;-74
2022/06/02 09:37:52;;;;;;;5.00;3.10;;;;;;;21.44;58.52;97446.85;1728823;82;27450;-74
2022/06/02 09:40:45;;;;;;;3.72;2.72;;;;;;;21.22;58.56;97449.12;1728474;82;25747;-75
2022/06/02 09:43:40;;;;;;;3.65;2.55;;;;;;;20.92;58.75;97456.27;1728703;82;25847;-74
2022/06/02 09:46:48;;;;;;;3.12;2.80;;;;;;;20.88;58.81;97463.42;1728717;82;26458;-75
2022/06/02 09:49:41;;;;;;;3.08;2.77;;;;;;;20.57;58.50;97452.17;1728811;82;25732;-74
2022/06/02 09:52:22;;;;;;;2.95;2.65;;;;;;;20.51;58.93;97475.22;1744335;81;27420;-73
2022/06/02 09:54:57;;;;;;;3.70;2.65;;;;;;;20.27;59.27;97474.34;1752318;81;25814;-74
2022/06/02 09:57:58;;;;;;;5.67;2.50;;;;;;;20.09;59.05;97447.43;1755061;81;26938;-75
2022/06/02 10:01:01;;;;;;;3.40;2.62;;;;;;;20.09;59.05;97447.43;1745106;81;25692;-74
2022/06/02 10:04:03;;;;;;;6.15;2.67;;;;;;;20.24;59.14;97474.05;1743420;82;25748;-73
2022/06/02 10:07:13;;;;;;;3.05;2.45;;;;;;;20.63;58.80;97469.73;1744979;82;27227;-75
2022/06/02 10:09:51;;;;;;;5.22;2.25;;;;;;;21.01;58.60;97462.83;1749404;81;25690;-75
2022/06/02 10:15:48;;;;;;;2.98;2.40;;;;;;;21.39;57.47;97457.84;1661598;86;25707;-74
2022/06/02 10:18:39;;;;;;;5.25;2.40;;;;;;;21.40;56.80;97459.48;1659334;86;25804;-74
2022/06/02 10:21:46;;;;;;;4.03;2.42;;;;;;;21.33;57.09;97444.69;1658488;86;27410;-74
2022/06/02 10:24:25;;;;;;;3.72;2.45;;;;;;;21.35;57.02;97465.01;1661275;86;25492;-73
2022/06/02 10:27:15;;;;;;;3.60;2.60;;;;;;;21.30;56.71;97463.64;1605126;89;26602;-73
2022/06/02 10:30:06;;;;;;;5.37;2.70;;;;;;;21.33;56.76;97457.59;1608173;89;26588;-74
2022/06/02 10:33:02;;;;;;;5.58;3.10;;;;;;;21.52;56.48;97462.73;1608558;89;25794;-73
2022/06/02 10:35:49;;;;;;;3.72;2.55;;;;;;;21.79;56.46;97459.06;1608484;89;28072;-74
2022/06/02 10:38:37;;;;;;;3.05;2.60;;;;;;;22.17;56.07;97459.45;1608445;89;25798;-74
2022/06/02 10:41:24;;;;;;;4.47;2.60;;;;;;;22.31;55.44;97460.46;1608425;89;25834;-74
2022/06/02 10:44:21;;;;;;;4.62;2.77;;;;;;;22.36;54.93;97449.41;1607911;89;26590;-74
2022/06/02 10:47:22;;;;;;;4.17;3.02;;;;;;;22.28;54.69;97452.77;1584713;89;25752;-74
2022/06/02 10:50:46;;;;;;;3.33;1.95;;;;;;;22.04;54.48;97444.41;1582189;90;27398;-75
2022/06/02 10:53:33;;;;;;;4.62;2.62;;;;;;;21.79;54.04;97445.33;1581779;90;25894;-77
2022/06/02 10:56:08;;;;;;;2.83;2.52;;;;;;;21.75;54.57;97437.37;1536405;93;25867;-76
2022/06/02 10:59:16;;;;;;;5.45;2.80;;;;;;;21.84;54.00;97437.07;1536505;92;26041;-76
2022/06/02 11:02:12;;;;;;;5.58;2.67;;;;;;;22.01;53.84;97444.14;1533408;93;25414;-77
2022/06/02 11:05:18;;;;;;;3.05;2.40;;;;;;;22.06;53.03;97442.20;1533455;93;27460;-77
2022/06/02 11:08:22;;;;;;;2.98;2.60;;;;;;;22.07;53.09;97444.39;1537172;91;26085;-76
2022/06/02 11:11:08;;;;;;;4.30;3.05;;;;;;;22.08;53.33;97443.30;1564849;91;25838;-77
2022/06/02 11:14:00;;;;;;;3.30;2.80;;;;;;;21.79;53.25;97449.45;1588852;89;26618;-77
2022/06/02 11:16:37;;;;;;;3.52;2.85;;;;;;;21.76;53.25;97443.13;1561424;91;25792;-77
2022/06/02 11:19:32;;;;;;;5.65;3.15;;;;;;;21.85;53.51;97447.52;1575249;90;28328;-76
2022/06/02 11:22:37;;;;;;;3.87;2.60;;;;;;;21.51;53.72;97430.88;1561387;91;25747;-76
2022/06/02 11:25:24;;;;;;;5.25;3.12;;;;;;;21.51;53.72;97430.88;1578182;90;25822;-77
2022/06/02 11:28:08;;;;;;;3.72;2.58;;;;;;;21.56;53.51;97456.97;1536306;93;25744;-76
2022/06/02 11:31:01;;;;;;;3.85;3.45;;;;;;;21.59;53.58;97456.41;1591028;88;25806;-76
2022/06/02 11:33:52;;;;;;;2.95;2.72;;;;;;;21.59;53.58;97456.41;1637779;87;28243;-76
2022/06/02 11:36:30;;;;;;;4.70;3.30;;;;;;;21.74;53.39;97432.97;1648816;86;25758;-76
2022/06/02 11:39:31;;;;;;;6.65;3.50;;;;;;;22.04;53.67;97449.90;1595296;88;25876;-77
2022/06/02 11:42:54;;;;;;;5.05;3.60;;;;;;;22.16;53.69;97452.30;1595465;88;25814;-77
2022/06/02 11:45:50;;;;;;;7.35;3.05;;;;;;;22.41;53.44;97457.64;1595416;89;25753;-76
2022/06/02 11:48:54;;;;;;;7.22;3.27;;;;;;;22.64;52.73;97448.65;1595241;89;27571;-76
2022/06/02 11:52:07;;;;;;;3.47;2.90;;;;;;;23.02;52.57;97432.94;1595013;89;25820;-75
2022/06/02 11:55:13;;;;;;;3.20;2.90;;;;;;;23.35;51.52;97435.59;1595235;89;25902;-76
2022/06/02 11:58:03;;;;;;;3.67;3.00;;;;;;;23.70;51.62;97444.58;1593236;88;26417;-76
2022/06/02 12:00:59;;;;;;;2.80;2.50;;;;;;;24.06;50.58;97452.64;1521487;94;25867;-76
2022/06/02 12:03:50;;;;;;;2.58;2.30;;;;;;;24.18;49.66;97455.52;1522866;94;27458;-76
2022/06/02 12:06:37;;;;;;;3.33;2.70;;;;;;;24.08;48.32;97455.66;1521738;94;25808;-76
2022/06/02 12:09:15;;;;;;;4.28;2.67;;;;;;;23.61;47.66;97457.38;1499507;95;25405;-76
2022/06/02 12:12:12;;;;;;;3.30;2.55;;;;;;;23.24;47.72;97461.61;1542770;92;26622;-76
2022/06/02 12:14:47;;;;;;;4.58;2.67;;;;;;;23.10;47.67;97465.33;1550155;92;25767;-75
2022/06/02 12:17:32;;;;;;;3.00;2.80;;;;;;;22.93;48.14;97463.03;1544282;91;28245;-77
2022/06/02 12:20:23;;;;;;;3.05;2.85;;;;;;;23.05;48.18;97465.40;1556223;91;25920;-75
2022/06/02 12:23:10;;;;;;;5.13;3.20;;;;;;;23.25;47.45;97465.19;1558663;91;25854;-76
2022/06/02 12:25:45;;;;;;;5.00;3.08;;;;;;;23.40;47.23;97455.94;1534131;93;25956;-75
2022/06/02 12:28:50;;;;;;;6.03;3.17;;;;;;;23.63;47.74;97459.28;1499256;94;25815;-75
2022/06/02 12:31:59;;;;;;;3.60;3.30;;;;;;;23.96;47.25;97457.48;1493054;95;27419;-76
2022/06/02 12:35:07;;;;;;;5.87;3.30;;;;;;;24.08;47.45;97466.69;1456631;90;25883;-76
2022/06/02 12:38:01;;;;;;;2.95;2.72;;;;;;;24.14;47.00;97466.91;1567904;90;25803;-77
2022/06/02 12:40:45;;;;;;;3.17;2.80;;;;;;;24.19;46.91;97462.67;1578012;90;25693;-77
2022/06/02 12:43:50;;;;;;;6.70;3.45;;;;;;;24.40;46.22;97465.42;1575597;90;25402;-75
2022/06/02 12:46:37;;;;;;;3.20;2.90;;;;;;;24.40;45.65;97464.05;1496166;95;28291;-76
2022/06/02 12:49:12;;;;;;;5.22;3.02;;;;;;;24.54;45.66;97469.63;1491777;95;25920;-76
2022/06/02 12:52:05;;;;;;;6.85;3.33;;;;;;;24.73;44.89;97479.55;1507453;95;25785;-75
2022/06/02 12:54:55;;;;;;;3.40;2.95;;;;;;;24.94;44.21;97476.47;1463376;98;25794;-76
2022/06/02 12:58:06;;;;;;;5.58;3.35;;;;;;;24.94;43.80;97473.71;1463219;98;25881;-76
2022/06/02 13:00:56;;;;;;;3.42;2.90;;;;;;;24.95;43.85;97481.70;1461239;98;28156;-76
2022/06/02 13:03:49;;;;;;;3.40;2.52;;;;;;;25.23;43.20;97478.45;1461230;98;25994;-75
2022/06/02 13:06:27;;;;;;;3.25;2.87;;;;;;;25.53;42.65;97477.61;1494536;94;25804;-77
2022/06/02 13:09:17;;;;;;;4.53;3.00;;;;;;;25.51;42.44;97478.47;1522760;93;25833;-75
2022/06/02 13:12:04;;;;;;;4.12;2.60;;;;;;;25.17;42.10;97478.27;1585566;88;25815;-76
2022/06/02 13:15:10;;;;;;;4.90;3.00;;;;;;;25.12;41.94;97471.44;1613743;88;28285;-76
2022/06/02 13:18:02;;;;;;;3.25;2.95;;;;;;;25.23;41.38;97470.17;1589717;90;26167;-76
2022/06/02 13:21:26;;;;;;;5.05;2.92;;;;;;;25.37;41.32;97477.89;1590031;90;25847;-75
2022/06/02 13:24:04;;;;;;;4.42;3.00;;;;;;;25.51;40.86;97473.77;1624821;87;25800;-76
2022/06/02 13:27:22;;;;;;;3.60;2.90;;;;;;;25.55;41.17;97469.83;1676967;84;25781;-76
2022/06/02 13:30:13;;;;;;;4.25;2.70;;;;;;;25.54;41.35;97482.83;1700106;84;27638;-75
2022/06/02 13:33:00;;;;;;;4.45;2.83;;;;;;;25.62;41.15;97479.38;1699637;84;25861;-75